Time;durP1;ratioP1;P1;durP2;ratioP2;P2;SDS_P1;SDS_P2;PMS_P1;PMS_P2;Temp;Humidity;BMP_temperature;BMP_pressure;BME280_temperature;BME280_humidity;BME280_pressure;Samples;Min_cycle;Max_cycle;Signal;HPM_P1;HPM_P2
2024/04/19 00:01:09;;;;;;;;;;;;;;;10.19;nan;101193.25;5227328;27;19940;-88
2024/04/19 00:03:34;;;;;;;;;;;;;;;10.20;nan;101187.66;5228812;27;19944;-89
2024/04/19 00:05:59;;;;;;;;;;;;;;;10.21;nan;101186.63;5229817;27;20538;-89
2024/04/19 00:08:24;;;;;;;;;;;;;;;10.20;nan;101178.81;5232289;27;19939;-89
2024/04/19 00:10:50;;;;;;;;;;;;;;;10.19;nan;101183.34;5225991;27;19939;-90
2024/04/19 00:13:15;;;;;;;;;;;;;;;10.18;nan;101181.72;5193287;27;20011;-90
2024/04/19 00:15:43;;;;;;;;;;;;;;;10.15;nan;101176.03;5223922;27;20003;-89
2024/04/19 00:18:08;;;;;;;;;;;;;;;10.13;nan;101172.78;5224269;27;19939;-89
2024/04/19 00:20:34;;;;;;;;;;;;;;;10.12;nan;101171.94;5228868;27;20288;-89
2024/04/19 00:22:59;;;;;;;;;;;;;;;10.10;nan;101179.41;5228663;27;19938;-90
2024/04/19 00:25:24;;;;;;;;;;;;;;;10.05;nan;101170.44;5229848;27;19931;-90
2024/04/19 00:27:50;;;;;;;;;;;;;;;10.04;nan;101177.66;5229188;27;20265;-89
2024/04/19 00:30:15;;;;;;;;;;;;;;;10.04;nan;101177.66;5230774;27;20416;-89
2024/04/19 00:32:40;;;;;;;;;;;;;;;10.04;nan;101164.25;5236092;27;19948;-89
2024/04/19 00:35:05;;;;;;;;;;;;;;;10.03;nan;101159.16;5224920;27;19939;-89
2024/04/19 00:37:33;;;;;;;;;;;;;;;10.01;nan;101159.38;5227651;27;19932;-89
2024/04/19 00:39:58;;;;;;;;;;;;;;;10.01;nan;101159.38;5233503;27;19959;-89
2024/04/19 00:42:24;;;;;;;;;;;;;;;10.02;nan;101158.34;5242526;27;20020;-90
2024/04/19 00:44:49;;;;;;;;;;;;;;;10.02;nan;101160.19;5221408;27;19932;-90
2024/04/19 00:47:15;;;;;;;;;;;;;;;9.99;nan;101159.63;5234663;27;19940;-90
2024/04/19 00:49:41;;;;;;;;;;;;;;;9.99;nan;101156.94;5231300;27;19968;-91
2024/04/19 00:52:07;;;;;;;;;;;;;;;9.97;nan;101148.34;5226393;27;19931;-89
2024/04/19 00:54:33;;;;;;;;;;;;;;;9.96;nan;101152.06;5233883;27;19939;-90
2024/04/19 00:56:58;;;;;;;;;;;;;;;9.93;nan;101152.53;5232501;27;19932;-89
2024/04/19 00:59:24;;;;;;;;;;;;;;;9.91;nan;101153.81;5232760;27;19942;-89
2024/04/19 01:01:49;;;;;;;;;;;;;;;9.91;nan;101156.50;5239683;27;20266;-89
2024/04/19 01:04:15;;;;;;;;;;;;;;;9.91;nan;101143.13;5204182;27;20373;-90
2024/04/19 01:06:41;;;;;;;;;;;;;;;9.89;nan;101146.03;5237172;27;20405;-90
2024/04/19 01:09:06;;;;;;;;;;;;;;;9.92;nan;101142.06;5233208;27;19932;-89
2024/04/19 01:11:31;;;;;;;;;;;;;;;9.90;nan;101142.28;5228170;27;19935;-89
2024/04/19 01:13:56;;;;;;;;;;;;;;;9.91;nan;101140.44;5239783;27;19932;-89
2024/04/19 01:16:22;;;;;;;;;;;;;;;9.89;nan;101146.03;5224880;27;19932;-89
2024/04/19 01:18:49;;;;;;;;;;;;;;;9.88;nan;101143.59;5236218;27;20376;-89
2024/04/19 01:21:15;;;;;;;;;;;;;;;9.85;nan;101138.69;5230529;27;19932;-89
2024/04/19 01:23:41;;;;;;;;;;;;;;;9.81;nan;101132.16;5246632;27;19955;-89
2024/04/19 01:26:06;;;;;;;;;;;;;;;9.78;nan;101138.81;5231459;27;19938;-90
2024/04/19 01:28:32;;;;;;;;;;;;;;;9.74;nan;101134.16;5233253;27;19940;-89
2024/04/19 01:30:57;;;;;;;;;;;;;;;9.71;nan;101127.41;5234560;27;19932;-89
2024/04/19 01:33:22;;;;;;;;;;;;;;;9.68;nan;101125.19;5233812;27;19942;-89
2024/04/19 01:35:47;;;;;;;;;;;;;;;9.66;nan;101124.59;5239226;27;19939;-89
2024/04/19 01:38:12;;;;;;;;;;;;;;;9.64;nan;101122.16;5231655;27;19939;-89
2024/04/19 01:40:38;;;;;;;;;;;;;;;9.59;nan;101111.34;5234699;27;19932;-89
2024/04/19 01:43:03;;;;;;;;;;;;;;;9.55;nan;101107.53;5231540;27;19939;-89
2024/04/19 01:45:28;;;;;;;;;;;;;;;9.53;nan;101101.59;5221295;27;19932;-89
2024/04/19 01:47:53;;;;;;;;;;;;;;;9.55;nan;101102.16;5239052;27;19951;-89
2024/04/19 01:50:18;;;;;;;;;;;;;;;9.57;nan;101093.91;5234792;27;20492;-89
2024/04/19 01:52:44;;;;;;;;;;;;;;;9.56;nan;101097.63;5224911;27;19932;-89
2024/04/19 01:55:09;;;;;;;;;;;;;;;9.54;nan;101094.38;5228932;27;19939;-88
2024/04/19 01:57:34;;;;;;;;;;;;;;;9.53;nan;101090.06;5225628;27;19943;-89
2024/04/19 01:59:59;;;;;;;;;;;;;;;9.50;nan;101083.31;5232120;27;19932;-89
2024/04/19 02:02:26;;;;;;;;;;;;;;;9.51;nan;101082.25;5230274;27;20261;-89
2024/04/19 02:04:52;;;;;;;;;;;;;;;9.51;nan;101076.09;5234643;27;19939;-89
2024/04/19 02:07:17;;;;;;;;;;;;;;;9.50;nan;101071.78;5233287;27;20373;-89
2024/04/19 02:09:42;;;;;;;;;;;;;;;9.48;nan;101073.88;5203040;27;19939;-89
2024/04/19 02:12:07;;;;;;;;;;;;;;;9.48;nan;101063.19;5220373;27;19940;-89
2024/04/19 02:14:33;;;;;;;;;;;;;;;9.47;nan;101057.03;5228741;27;20519;-89
2024/04/19 02:16:59;;;;;;;;;;;;;;;9.48;nan;101060.50;5230141;27;19937;-90
2024/04/19 02:19:24;;;;;;;;;;;;;;;9.46;nan;101049.25;5225118;27;20315;-89
2024/04/19 02:21:49;;;;;;;;;;;;;;;9.47;nan;101040.16;5217533;27;19947;-90
2024/04/19 02:24:15;;;;;;;;;;;;;;;9.46;nan;101046.56;5231456;27;20003;-89
2024/04/19 02:26:41;;;;;;;;;;;;;;;9.46;nan;101035.88;5225681;27;19932;-90
2024/04/19 02:31:50;;;;;;;;;;;;;;;9.42;nan;101021.34;5230259;27;19939;-89
2024/04/19 02:34:15;;;;;;;;;;;;;;;9.43;nan;101022.97;5234794;27;19931;-89
2024/04/19 02:36:41;;;;;;;;;;;;;;;9.42;nan;101016.81;5225974;27;19940;-89
2024/04/19 02:39:06;;;;;;;;;;;;;;;9.44;nan;101011.22;5226408;27;19932;-89
2024/04/19 02:41:31;;;;;;;;;;;;;;;9.48;nan;101004.34;5231614;27;19936;-89
2024/04/19 02:43:56;;;;;;;;;;;;;;;9.50;nan;101013.75;5236194;27;19931;-89
2024/04/19 02:46:21;;;;;;;;;;;;;;;9.49;nan;101001.44;5224938;27;20369;-89
2024/04/19 02:48:49;;;;;;;;;;;;;;;9.47;nan;101002.72;5228102;27;20003;-89
2024/04/19 02:51:14;;;;;;;;;;;;;;;9.48;nan;100994.47;5229204;27;20654;-89
2024/04/19 03:04:18;;;;;;;;;;;;;;;9.52;53.52;100979.59;5540681;25;19940;-89
2024/04/19 03:06:44;;;;;;;;;;;;;;;9.49;53.75;100977.38;5541192;25;19927;-89
2024/04/19 03:09:09;;;;;;;;;;;;;;;9.50;53.81;100970.16;5528462;25;19927;-89
2024/04/19 03:11:34;;;;;;;;;;;;;;;9.50;53.77;100975.50;5533203;25;19963;-89
2024/04/19 03:13:59;;;;;;;;;;;;;;;9.51;53.76;100963.75;5521402;25;20271;-89
2024/04/19 03:16:24;;;;;;;;;;;;;;;9.52;53.71;100963.53;5541146;25;19927;-89
2024/04/19 03:18:50;;;;;;;;;;;;;;;9.51;53.79;100959.22;5541020;25;19996;-88
2024/04/19 03:21:15;;;;;;;;;;;;;;;9.55;53.77;100962.25;5539160;25;19940;-89
2024/04/19 03:23:40;;;;;;;;;;;;;;;9.56;53.75;100961.22;5541553;25;19939;-89
2024/04/19 03:26:06;;;;;;;;;;;;;;;9.55;53.82;100951.56;5535291;25;20014;-89
2024/04/19 03:28:31;;;;;;;;;;;;;;;9.56;53.92;100937.13;5542095;25;20275;-89
2024/04/19 03:30:56;;;;;;;;;;;;;;;9.54;53.81;100944.59;5540704;25;19928;-89
2024/04/19 03:33:21;;;;;;;;;;;;;;;9.56;53.83;100945.16;5540661;25;19952;-88
2024/04/19 03:35:46;;;;;;;;;;;;;;;9.54;54.05;100947.25;5540089;25;19935;-89
2024/04/19 03:38:14;;;;;;;;;;;;;;;9.53;54.05;100953.66;5535915;25;19931;-88
2024/04/19 03:40:39;;;;;;;;;;;;;;;9.50;54.10;100948.75;5536760;25;19927;-89
2024/04/19 03:43:04;;;;;;;;;;;;;;;9.48;54.35;100934.81;5536832;25;20386;-89
2024/04/19 03:45:43;;;;;;;;;;;;;;;9.47;54.31;100935.84;5537754;25;19935;-89
2024/04/19 03:48:09;;;;;;;;;;;;;;;9.45;54.22;100935.28;5536333;25;19934;-88
2024/04/19 03:50:34;;;;;;;;;;;;;;;9.45;54.65;100935.28;5538658;25;19927;-89
2024/04/19 03:52:59;;;;;;;;;;;;;;;9.46;54.44;100926.22;5534997;25;19935;-89
2024/04/19 03:55:24;;;;;;;;;;;;;;;9.44;54.58;100928.31;5536804;25;19969;-89
2024/04/19 03:57:50;;;;;;;;;;;;;;;9.44;54.50;100923.78;5539432;25;19955;-88
2024/04/19 04:00:15;;;;;;;;;;;;;;;9.45;54.73;100916.56;5534456;25;19927;-89
2024/04/19 04:02:40;;;;;;;;;;;;;;;9.43;54.60;100921.34;5542018;25;19935;-89
2024/04/19 04:05:05;;;;;;;;;;;;;;;9.39;54.57;100912.97;5520015;25;19994;-89
2024/04/19 04:07:31;;;;;;;;;;;;;;;9.33;55.02;100906.69;5519336;25;19934;-89
2024/04/19 04:09:56;;;;;;;;;;;;;;;9.30;55.05;100912.53;5522005;26;19935;-89
2024/04/19 04:12:21;;;;;;;;;;;;;;;9.29;55.35;100912.75;5523861;25;20283;-89
2024/04/19 04:14:46;;;;;;;;;;;;;;;9.27;55.03;100906.84;5519863;26;20429;-88
2024/04/19 04:17:12;;;;;;;;;;;;;;;9.23;55.45;100900.34;5522786;26;20003;-89
2024/04/19 04:19:37;;;;;;;;;;;;;;;9.23;55.30;100903.00;5521764;26;19939;-89
2024/04/19 04:22:02;;;;;;;;;;;;;;;9.23;55.42;100901.16;5521092;26;19938;-89
2024/04/19 04:24:28;;;;;;;;;;;;;;;9.24;55.46;100902.78;5516922;26;20023;-89
2024/04/19 04:26:53;;;;;;;;;;;;;;;9.22;55.90;100894.19;5524455;25;20583;-90
2024/04/19 04:29:18;;;;;;;;;;;;;;;9.22;55.77;100894.19;5527896;25;19939;-89
2024/04/19 04:31:43;;;;;;;;;;;;;;;9.23;55.78;100893.13;5520252;26;20316;-89
2024/04/19 04:34:09;;;;;;;;;;;;;;;9.24;55.58;100894.75;5523761;25;19928;-91
2024/04/19 04:36:34;;;;;;;;;;;;;;;9.22;56.03;100890.69;5511886;25;20016;-89
2024/04/19 04:38:59;;;;;;;;;;;;;;;9.22;56.08;100882.69;5513032;25;19995;-89
2024/04/19 04:41:24;;;;;;;;;;;;;;;9.22;56.23;100888.84;5519297;25;20307;-88
2024/04/19 04:43:49;;;;;;;;;;;;;;;9.23;56.34;100885.13;5520548;25;19927;-89
2024/04/19 04:46:15;;;;;;;;;;;;;;;9.23;56.57;100879.75;5518674;25;19927;-88
2024/04/19 04:48:40;;;;;;;;;;;;;;;9.27;56.70;100875.56;5518917;25;19927;-89
2024/04/19 04:51:05;;;;;;;;;;;;;;;9.29;56.37;100868.13;5519994;25;19948;-89
2024/04/19 04:53:30;;;;;;;;;;;;;;;9.31;56.61;100875.91;5515389;25;19935;-90
2024/04/19 04:55:55;;;;;;;;;;;;;;;9.31;56.77;100867.88;5511919;25;20407;-91
2024/04/19 04:58:21;;;;;;;;;;;;;;;9.30;56.35;100869.75;5512590;25;19935;-89
2024/04/19 05:00:47;;;;;;;;;;;;;;;9.31;56.68;100858.00;5509536;26;19934;-89
2024/04/19 05:03:13;;;;;;;;;;;;;;;9.32;56.77;100858.81;5515735;26;20599;-89
2024/04/19 05:05:39;;;;;;;;;;;;;;;9.33;56.84;100863.91;5517068;25;19977;-89
2024/04/19 05:08:04;;;;;;;;;;;;;;;9.34;56.93;100851.38;5514643;25;19927;-89
2024/04/19 05:10:29;;;;;;;;;;;;;;;9.36;56.90;100847.41;5522016;25;19934;-89
2024/04/19 05:12:55;;;;;;;;;;;;;;;9.36;57.06;100841.25;5511142;26;19935;-88
2024/04/19 05:15:20;;;;;;;;;;;;;;;9.37;57.21;100838.34;5476065;25;19928;-89
2024/04/19 05:17:45;;;;;;;;;;;;;;;9.41;57.47;100840.53;5511378;25;19928;-89
2024/04/19 05:20:11;;;;;;;;;;;;;;;9.44;56.89;100826.69;5513835;25;19927;-89
2024/04/19 05:22:37;;;;;;;;;;;;;;;9.42;57.11;100821.56;5516865;25;19933;-89
2024/04/19 05:25:07;;;;;;;;;;;;;;;9.44;57.18;100827.50;5513147;25;19935;-89
2024/04/19 05:27:32;;;;;;;;;;;;;;;9.44;57.34;100818.66;5518705;25;20467;-89
2024/04/19 05:29:57;;;;;;;;;;;;;;;9.46;57.33;100819.22;5517509;25;19928;-90
2024/04/19 05:32:23;;;;;;;;;;;;;;;9.47;57.79;100810.16;5520293;25;19963;-89
2024/04/19 05:34:48;;;;;;;;;;;;;;;9.51;57.60;100800.59;5521170;25;20376;-90
2024/04/19 05:37:13;;;;;;;;;;;;;;;9.56;57.58;100790.00;5516896;26;19931;-90
2024/04/19 05:39:38;;;;;;;;;;;;;;;9.60;57.50;100793.81;5540676;25;20593;-89
2024/04/19 05:42:03;;;;;;;;;;;;;;;9.62;58.41;100789.03;5523112;25;19935;-89
2024/04/19 05:44:31;;;;;;;;;;;;;;;9.66;58.34;100787.50;5527719;25;19993;-89
2024/04/19 05:46:57;;;;;;;;;;;;;;;9.70;57.94;100772.63;5518176;25;19927;-89
2024/04/19 05:49:22;;;;;;;;;;;;;;;9.74;58.00;100773.75;5514074;26;19928;-90
2024/04/19 05:51:47;;;;;;;;;;;;;;;9.80;58.16;100770.09;5519945;25;19932;-89
2024/04/19 05:54:13;;;;;;;;;;;;;;;9.84;58.37;100768.56;5522119;25;20659;-89
2024/04/19 05:56:38;;;;;;;;;;;;;;;9.91;58.34;100766.53;5525668;25;19936;-90
2024/04/19 05:59:03;;;;;;;;;;;;;;;9.96;58.44;100757.78;5521890;25;20619;-89
2024/04/19 06:01:28;;;;;;;;;;;;;;;9.98;58.92;100767.19;5515674;25;19938;-89
2024/04/19 06:03:53;;;;;;;;;;;;;;;10.00;58.58;100748.19;5519177;26;19992;-89
2024/04/19 06:06:19;;;;;;;;;;;;;;;10.04;58.94;100759.22;5526060;25;19927;-89
2024/04/19 06:08:44;;;;;;;;;;;;;;;10.08;58.51;100749.69;5529392;25;19939;-89
2024/04/19 06:11:10;;;;;;;;;;;;;;;10.13;58.59;100741.72;5522332;25;20288;-89
2024/04/19 06:13:36;;;;;;;;;;;;;;;10.14;58.48;100735.31;5514921;25;19935;-89
2024/04/19 06:16:02;;;;;;;;;;;;;;;10.14;58.55;100733.44;5520726;26;19935;-90
2024/04/19 06:18:27;;;;;;;;;;;;;;;10.15;58.65;100721.66;5513237;25;20441;-90
2024/04/19 06:20:52;;;;;;;;;;;;;;;10.17;58.52;100724.09;5485074;26;19927;-90
2024/04/19 06:23:17;;;;;;;;;;;;;;;10.21;58.94;100714.53;5521611;26;19934;-89
2024/04/19 06:25:43;;;;;;;;;;;;;;;10.26;59.05;100707.41;5507354;25;20165;-90
2024/04/19 06:28:08;;;;;;;;;;;;;;;10.30;58.69;100702.38;5514442;26;19928;-91
2024/04/19 06:30:34;;;;;;;;;;;;;;;10.33;58.75;100707.22;5511087;25;20364;-90
2024/04/19 06:32:59;;;;;;;;;;;;;;;10.39;59.07;100695.50;5520442;26;20379;-89
2024/04/19 06:35:24;;;;;;;;;;;;;;;10.46;58.99;100693.47;5519625;26;19939;-90
2024/04/19 06:37:49;;;;;;;;;;;;;;;10.56;59.11;100685.56;5518037;25;19928;-90
2024/04/19 06:40:14;;;;;;;;;;;;;;;10.68;58.84;100679.28;5527173;25;20380;-89
2024/04/19 06:42:41;;;;;;;;;;;;;;;10.73;59.03;100674.78;5519569;25;19927;-89
2024/04/19 06:45:06;;;;;;;;;;;;;;;10.74;58.93;100683.63;5518742;26;20005;-88
2024/04/19 06:47:31;;;;;;;;;;;;;;;10.79;58.96;100678.34;5523145;25;19943;-90
2024/04/19 06:49:57;;;;;;;;;;;;;;;10.76;58.63;100678.81;5526865;25;19931;-90
2024/04/19 06:52:22;;;;;;;;;;;;;;;10.75;58.65;100674.50;5513657;26;19928;-90
2024/04/19 06:54:47;;;;;;;;;;;;;;;10.73;58.32;100660.56;5520504;25;20444;-90
2024/04/19 06:57:13;;;;;;;;;;;;;;;10.70;58.76;100659.19;5517172;25;19927;-90
2024/04/19 06:59:39;;;;;;;;;;;;;;;10.71;59.09;100647.41;5528226;25;19934;-90
2024/04/19 07:02:05;;;;;;;;;;;;;;;10.79;58.95;100640.81;5515976;25;19939;-89
2024/04/19 07:04:30;;;;;;;;;;;;;;;10.83;59.08;100633.88;5522131;25;19935;-90
2024/04/19 07:06:55;;;;;;;;;;;;;;;10.89;58.72;100638.22;5512216;25;20584;-90
2024/04/19 07:09:21;;;;;;;;;;;;;;;10.92;58.55;100629.69;5514685;26;20015;-90
2024/04/19 07:11:47;;;;;;;;;;;;;;;10.97;58.63;100634.31;5509237;26;19927;-90
2024/04/19 07:14:12;;;;;;;;;;;;;;;10.98;58.76;100634.03;5510885;25;19951;-90
2024/04/19 07:16:38;;;;;;;;;;;;;;;11.03;58.76;100630.59;5516870;26;19927;-90
2024/04/19 07:19:03;;;;;;;;;;;;;;;11.07;58.47;100627.16;5512945;25;19928;-90
2024/04/19 07:21:28;;;;;;;;;;;;;;;11.04;58.49;100633.03;5515038;26;19927;-90
2024/04/19 07:23:53;;;;;;;;;;;;;;;10.99;58.98;100618.78;5515336;26;19934;-90
2024/04/19 07:26:19;;;;;;;;;;;;;;;11.01;59.01;100617.44;5519963;25;19995;-90
2024/04/19 07:28:45;;;;;;;;;;;;;;;11.02;58.69;100616.38;5518017;25;19927;-90
2024/04/19 07:31:10;;;;;;;;;;;;;;;11.03;58.89;100614.50;5516766;25;19996;-89
2024/04/19 07:33:36;;;;;;;;;;;;;;;11.02;58.98;100611.03;5505752;25;19932;-90
2024/04/19 07:36:01;;;;;;;;;;;;;;;11.01;58.78;100604.03;5516800;25;19935;-90
2024/04/19 07:38:26;;;;;;;;;;;;;;;10.94;59.21;100599.94;5512629;25;19928;-90
2024/04/19 07:40:51;;;;;;;;;;;;;;;10.89;59.38;100598.81;5519919;26;20279;-91
2024/04/19 07:43:16;;;;;;;;;;;;;;;10.86;59.68;100595.84;5516183;25;19964;-90
2024/04/19 07:45:43;;;;;;;;;;;;;;;10.87;59.88;100584.06;5516369;26;19939;-90
2024/04/19 07:48:08;;;;;;;;;;;;;;;10.89;59.69;100587.31;5514732;26;19939;-90
2024/04/19 07:50:33;;;;;;;;;;;;;;;10.83;60.06;100589.13;5512804;25;20333;-91
2024/04/19 07:52:58;;;;;;;;;;;;;;;10.77;60.36;100594.69;5512514;25;19963;-90
2024/04/19 07:55:24;;;;;;;;;;;;;;;10.74;60.46;100585.28;5517256;25;19935;-90
2024/04/19 07:57:49;;;;;;;;;;;;;;;10.72;60.84;100586.59;5511771;26;19927;-90
2024/04/19 08:00:17;;;;;;;;;;;;;;;10.70;60.58;100586.03;5510275;25;19927;-91
2024/04/19 08:02:46;;;;;;;;;;;;;;;10.67;61.03;100589.22;5513480;25;19939;-90
2024/04/19 08:05:12;;;;;;;;;;;;;;;10.58;61.20;100578.94;5519257;25;19933;-90
2024/04/19 08:07:37;;;;;;;;;;;;;;;10.52;61.37;100574.59;5525430;25;20272;-90
2024/04/19 08:10:03;;;;;;;;;;;;;;;10.50;61.82;100571.38;5517353;25;19951;-90
2024/04/19 08:12:28;;;;;;;;;;;;;;;10.51;61.94;100564.16;5521185;25;19934;-90
2024/04/19 08:14:53;;;;;;;;;;;;;;;10.54;62.41;100559.09;5495001;26;20267;-90
2024/04/19 08:17:18;;;;;;;;;;;;;;;10.63;62.74;100555.97;5518034;26;19928;-91
2024/04/19 08:19:43;;;;;;;;;;;;;;;10.64;62.99;100553.03;5522194;25;19928;-90
2024/04/19 08:22:10;;;;;;;;;;;;;;;10.66;62.39;100548.22;5521263;25;20444;-89
2024/04/19 08:24:35;;;;;;;;;;;;;;;10.67;62.96;100546.34;5521611;25;19928;-90
2024/04/19 08:27:01;;;;;;;;;;;;;;;10.70;62.97;100537.81;5523878;25;20001;-90
2024/04/19 08:29:26;;;;;;;;;;;;;;;10.72;62.73;100535.69;5517703;25;19934;-90
2024/04/19 08:31:51;;;;;;;;;;;;;;;10.75;62.69;100543.22;5517972;25;19931;-88
2024/04/19 08:34:16;;;;;;;;;;;;;;;10.75;62.36;100535.16;5519781;25;19927;-91
2024/04/19 08:36:41;;;;;;;;;;;;;;;10.68;63.23;100529.22;5518653;25;19943;-90
2024/04/19 08:39:06;;;;;;;;;;;;;;;10.71;62.85;100518.00;5521747;25;19928;-90
2024/04/19 08:41:32;;;;;;;;;;;;;;;10.75;63.20;100517.22;5508361;25;19935;-90
2024/04/19 08:43:58;;;;;;;;;;;;;;;10.75;62.76;100524.44;5520266;25;19935;-90
2024/04/19 08:46:24;;;;;;;;;;;;;;;10.70;63.06;100521.72;5523844;25;19960;-90
2024/04/19 08:48:50;;;;;;;;;;;;;;;10.67;63.88;100517.69;5520803;25;19935;-90
2024/04/19 08:51:17;;;;;;;;;;;;;;;10.66;63.60;100508.03;5508703;26;20454;-91
2024/04/19 08:53:43;;;;;;;;;;;;;;;10.65;63.86;100505.63;5515740;25;19928;-91
2024/04/19 08:56:08;;;;;;;;;;;;;;;10.63;63.97;100507.75;5516257;25;19927;-91
2024/04/19 08:58:34;;;;;;;;;;;;;;;10.59;63.96;100492.19;5507948;25;20468;-91
2024/04/19 09:01:00;;;;;;;;;;;;;;;10.61;63.99;100499.16;5518594;25;19934;-91
2024/04/19 09:03:25;;;;;;;;;;;;;;;10.59;64.18;100491.34;5515978;26;20035;-91
2024/04/19 09:05:50;;;;;;;;;;;;;;;10.52;64.74;100486.22;5519073;25;19939;-91
2024/04/19 09:08:16;;;;;;;;;;;;;;;10.55;65.14;100480.34;5514570;25;20376;-90
2024/04/19 09:10:41;;;;;;;;;;;;;;;10.54;65.54;100478.72;5514354;25;19939;-91
2024/04/19 09:13:06;;;;;;;;;;;;;;;10.61;65.12;100475.84;5516182;25;20455;-91
2024/04/19 09:15:31;;;;;;;;;;;;;;;10.62;65.75;100468.63;5517910;25;19935;-91
2024/04/19 09:17:59;;;;;;;;;;;;;;;10.72;65.44;100466.00;5518822;25;20002;-90
2024/04/19 09:20:24;;;;;;;;;;;;;;;10.72;65.37;100463.34;5516723;25;19973;-90
2024/04/19 09:22:50;;;;;;;;;;;;;;;10.73;65.91;100455.03;5481296;25;19959;-91
2024/04/19 09:25:18;;;;;;;;;;;;;;;10.81;65.79;100456.44;5519319;25;19996;-90
2024/04/19 09:27:44;;;;;;;;;;;;;;;10.83;65.68;100459.69;5516320;26;19935;-90
2024/04/19 09:30:10;;;;;;;;;;;;;;;10.82;65.27;100452.72;5508399;26;19928;-90
2024/04/19 09:32:36;;;;;;;;;;;;;;;10.78;64.96;100440.88;5509600;25;19964;-90
2024/04/19 09:35:01;;;;;;;;;;;;;;;10.79;65.68;100437.16;5491705;26;19928;-91
2024/04/19 09:37:29;;;;;;;;;;;;;;;10.78;64.91;100425.63;5520356;25;20391;-89
2024/04/19 09:39:54;;;;;;;;;;;;;;;10.74;65.11;100429.84;5512867;25;19933;-90
2024/04/19 09:42:21;;;;;;;;;;;;;;;10.72;64.95;100426.63;5513535;25;19928;-91
2024/04/19 09:44:49;;;;;;;;;;;;;;;10.68;64.98;100422.03;5513067;25;19977;-90
2024/04/19 09:47:15;;;;;;;;;;;;;;;10.65;65.07;100420.69;5510506;25;19927;-90
2024/04/19 09:49:43;;;;;;;;;;;;;;;10.63;65.25;100408.63;5516885;25;19928;-90
2024/04/19 09:52:14;;;;;;;;;;;;;;;10.62;65.69;100415.03;5505426;25;19928;-90
2024/04/19 09:54:41;;;;;;;;;;;;;;;10.63;65.64;100400.56;5512721;25;20379;-91
2024/04/19 09:57:07;;;;;;;;;;;;;;;10.62;65.75;100405.13;5512016;26;19928;-90
2024/04/19 09:59:34;;;;;;;;;;;;;;;10.62;66.80;100396.28;5521284;26;19930;-90
2024/04/19 10:02:00;;;;;;;;;;;;;;;10.66;65.90;100383.97;5519786;25;19927;-90
2024/04/19 10:04:26;;;;;;;;;;;;;;;10.73;66.08;100392.59;5509659;26;20205;-90
2024/04/19 10:06:52;;;;;;;;;;;;;;;10.75;65.88;100377.88;5524039;25;19935;-91
2024/04/19 10:09:18;;;;;;;;;;;;;;;10.75;65.73;100377.06;5520281;25;19928;-91
2024/04/19 10:11:46;;;;;;;;;;;;;;;10.75;65.98;100377.88;5519385;25;19939;-90
2024/04/19 10:14:12;;;;;;;;;;;;;;;10.78;65.92;100374.69;5514100;26;19935;-91
2024/04/19 10:16:38;;;;;;;;;;;;;;;10.76;66.00;100362.59;5516186;25;19935;-91
2024/04/19 10:19:04;;;;;;;;;;;;;;;10.79;66.17;100354.88;5521149;25;19946;-91
2024/04/19 10:21:29;;;;;;;;;;;;;;;10.80;66.34;100350.31;5507048;25;20440;-90
2024/04/19 10:23:54;;;;;;;;;;;;;;;10.81;66.49;100351.94;5486446;25;19932;-90
2024/04/19 10:26:23;;;;;;;;;;;;;;;10.84;66.72;100340.69;5507986;25;20387;-90
2024/04/19 10:28:55;;;;;;;;;;;;;;;10.90;66.70;100337.78;5522025;25;19928;-90
2024/04/19 10:31:21;;;;;;;;;;;;;;;10.91;66.31;100338.56;5481147;26;19927;-91
2024/04/19 10:33:46;;;;;;;;;;;;;;;10.89;67.00;100338.03;5520467;25;19927;-90
2024/04/19 10:36:12;;;;;;;;;;;;;;;10.97;66.58;100332.19;5497362;26;19935;-90
2024/04/19 10:38:37;;;;;;;;;;;;;;;11.00;66.79;100325.50;5513707;25;19927;-91
2024/04/19 10:41:04;;;;;;;;;;;;;;;11.02;66.41;100323.38;5511322;26;19934;-90
2024/04/19 10:43:30;;;;;;;;;;;;;;;10.99;66.59;100319.34;5513128;25;20376;-91
2024/04/19 10:45:55;;;;;;;;;;;;;;;10.98;66.47;100306.19;5516706;26;20007;-90
2024/04/19 10:48:20;;;;;;;;;;;;;;;10.92;67.09;100302.66;5506150;25;19928;-90
2024/04/19 10:50:46;;;;;;;;;;;;;;;10.92;67.55;100299.19;5519698;25;20248;-91
2024/04/19 10:53:11;;;;;;;;;;;;;;;10.98;67.31;100304.31;5515847;25;20387;-90
2024/04/19 10:55:38;;;;;;;;;;;;;;;11.02;66.98;100291.19;5517810;25;20376;-90
2024/04/19 10:58:03;;;;;;;;;;;;;;;11.02;67.63;100288.50;5518439;25;19928;-90
2024/04/19 11:00:28;;;;;;;;;;;;;;;11.02;67.97;100289.31;5515951;25;19935;-90
2024/04/19 11:02:54;;;;;;;;;;;;;;;11.06;67.01;100287.72;5506499;25;19927;-90
2024/04/19 11:05:20;;;;;;;;;;;;;;;11.05;67.10;100285.31;5519028;25;20371;-89
2024/04/19 11:07:45;;;;;;;;;;;;;;;11.06;67.81;100276.19;5521639;25;19927;-92
2024/04/19 11:10:10;;;;;;;;;;;;;;;11.09;68.10;100271.09;5522421;25;19927;-91
2024/04/19 11:12:35;;;;;;;;;;;;;;;11.18;68.45;100263.38;5515413;25;20004;-91
2024/04/19 11:15:01;;;;;;;;;;;;;;;11.24;68.20;100264.19;5521589;25;19934;-91
2024/04/19 11:17:26;;;;;;;;;;;;;;;11.29;68.24;100258.81;5511120;25;19935;-91
2024/04/19 11:19:52;;;;;;;;;;;;;;;11.31;67.86;100257.53;5525015;25;20372;-91
2024/04/19 11:22:17;;;;;;;;;;;;;;;11.32;67.51;100247.59;5518953;25;19996;-92
2024/04/19 11:24:42;;;;;;;;;;;;;;;11.34;68.04;100250.81;5523850;25;19931;-91
2024/04/19 11:27:08;;;;;;;;;;;;;;;11.34;68.25;100242.78;5511227;25;20386;-91
2024/04/19 11:29:33;;;;;;;;;;;;;;;11.37;68.11;100244.91;5517447;25;19995;-90
2024/04/19 11:32:07;;;;;;;;;;;;;;;11.36;67.99;100244.13;5524350;25;20275;-91
2024/04/19 11:34:33;;;;;;;;;;;;;;;11.32;68.21;100237.69;5517488;25;19935;-91
2024/04/19 11:36:59;;;;;;;;;;;;;;;11.31;68.58;100230.69;5513155;25;20312;-92
2024/04/19 11:39:24;;;;;;;;;;;;;;;11.30;68.57;100229.06;5504966;25;19943;-90
2024/04/19 11:41:49;;;;;;;;;;;;;;;11.29;68.42;100232.81;5518304;25;19928;-91
2024/04/19 11:44:14;;;;;;;;;;;;;;;11.28;68.71;100227.72;5519054;25;19972;-91
2024/04/19 11:46:46;;;;;;;;;;;;;;;11.28;68.63;100228.53;5520484;25;20471;-91
2024/04/19 11:49:14;;;;;;;;;;;;;;;11.24;68.66;100218.59;5521980;25;19996;-91
2024/04/19 11:51:44;;;;;;;;;;;;;;;11.21;69.06;100225.31;5522356;25;19933;-91
2024/04/19 11:54:09;;;;;;;;;;;;;;;11.22;69.16;100224.22;5525507;25;19935;-91
2024/04/19 11:56:35;;;;;;;;;;;;;;;11.22;69.19;100218.06;5507107;25;19928;-91
2024/04/19 11:59:01;;;;;;;;;;;;;;;11.21;69.31;100211.91;5515370;25;19940;-91
2024/04/19 12:01:29;;;;;;;;;;;;;;;11.19;69.31;100212.16;5482807;26;19928;-91
2024/04/19 12:03:54;;;;;;;;;;;;;;;11.20;70.33;100208.41;5515951;25;19940;-90
2024/04/19 12:06:23;;;;;;;;;;;;;;;11.28;70.55;100211.63;5510651;25;19973;-90
2024/04/19 12:08:48;;;;;;;;;;;;;;;11.34;70.46;100202.53;5516567;25;20261;-91
2024/04/19 12:11:14;;;;;;;;;;;;;;;11.40;70.09;100210.31;5511396;25;19934;-90
2024/04/19 12:13:39;;;;;;;;;;;;;;;11.40;69.83;100190.72;5522461;25;20229;-90
2024/04/19 12:16:04;;;;;;;;;;;;;;;11.42;70.04;100192.06;5522763;26;20643;-90
2024/04/19 12:18:29;;;;;;;;;;;;;;;11.39;70.23;100181.88;5520379;26;19965;-89
2024/04/19 12:20:55;;;;;;;;;;;;;;;11.40;69.60;100182.69;5516968;25;19960;-90
2024/04/19 12:23:20;;;;;;;;;;;;;;;11.36;69.55;100189.66;5518860;25;19927;-90
2024/04/19 12:25:45;;;;;;;;;;;;;;;11.36;69.54;100186.97;5521531;25;19932;-91
2024/04/19 12:28:10;;;;;;;;;;;;;;;11.32;69.30;100189.41;5520037;25;19934;-90
2024/04/19 12:30:36;;;;;;;;;;;;;;;11.28;69.23;100187.50;5516573;25;20342;-90
2024/04/19 12:33:01;;;;;;;;;;;;;;;11.25;69.56;100180.78;5518778;25;19927;-91
2024/04/19 12:35:28;;;;;;;;;;;;;;;11.20;69.38;100181.59;5517812;25;19973;-90
2024/04/19 12:37:53;;;;;;;;;;;;;;;11.16;69.70;100175.16;5515212;25;19932;-91
2024/04/19 12:40:18;;;;;;;;;;;;;;;11.15;70.14;100172.75;5517927;25;19996;-90
2024/04/19 12:42:44;;;;;;;;;;;;;;;11.19;70.50;100169.25;5517629;25;19972;-91
2024/04/19 12:45:09;;;;;;;;;;;;;;;11.26;70.07;100169.00;5524917;25;19999;-91
2024/04/19 12:47:34;;;;;;;;;;;;;;;11.32;70.05;100170.63;5522492;25;20383;-90
2024/04/19 12:49:59;;;;;;;;;;;;;;;11.33;69.05;100163.38;5522812;25;19934;-91